sensor_id;sensor_type;location;lat;lon;timestamp;pressure;altitude;pressure_sealevel;temperature;humidity
69306;BME280;56427;51.580;4.656;2024-01-27T00:00:33;103535.56;;;2.79;100.00
69306;BME280;56427;51.580;4.656;2024-01-27T00:02:59;103536.47;;;2.83;100.00
69306;BME280;56427;51.580;4.656;2024-01-27T00:05:24;103544.97;;;2.80;100.00
69306;BME280;56427;51.580;4.656;2024-01-27T00:07:49;103541.53;;;2.80;100.00
69306;BME280;56427;51.580;4.656;2024-01-27T00:10:15;103547.38;;;2.74;100.00
69306;BME280;56427;51.580;4.656;2024-01-27T00:12:40;103538.78;;;2.72;100.00
69306;BME280;56427;51.580;4.656;2024-01-27T00:15:07;103542.28;;;2.76;100.00
69306;BME280;56427;51.580;4.656;2024-01-27T00:17:33;103550.59;;;2.67;100.00
69306;BME280;56427;51.580;4.656;2024-01-27T00:20:00;103555.78;;;2.70;100.00
69306;BME280;56427;51.580;4.656;2024-01-27T00:22:26;103544.66;;;2.69;100.00
69306;BME280;56427;51.580;4.656;2024-01-27T00:24:51;103543.97;;;2.75;100.00
69306;BME280;56427;51.580;4.656;2024-01-27T00:27:16;103537.81;;;2.68;100.00
69306;BME280;56427;51.580;4.656;2024-01-27T00:29:42;103535.09;;;2.64;100.00
69306;BME280;56427;51.580;4.656;2024-01-27T00:32:07;103541.88;;;2.62;100.00
69306;BME280;56427;51.580;4.656;2024-01-27T00:34:32;103543.50;;;2.58;100.00
69306;BME280;56427;51.580;4.656;2024-01-27T00:36:58;103548.69;;;2.60;100.00
69306;BME280;56427;51.580;4.656;2024-01-27T00:39:23;103552.81;;;2.56;100.00
69306;BME280;56427;51.580;4.656;2024-01-27T00:41:49;103541.06;;;2.63;100.00
69306;BME280;56427;51.580;4.656;2024-01-27T00:44:14;103540.88;;;2.57;100.00
69306;BME280;56427;51.580;4.656;2024-01-27T00:46:40;103543.38;;;2.54;100.00
69306;BME280;56427;51.580;4.656;2024-01-27T00:49:05;103552.59;;;2.49;100.00
69306;BME280;56427;51.580;4.656;2024-01-27T00:51:32;103545.66;;;2.44;100.00
69306;BME280;56427;51.580;4.656;2024-01-27T00:53:57;103545.47;;;2.38;100.00
69306;BME280;56427;51.580;4.656;2024-01-27T00:56:22;103542.91;;;2.38;100.00
69306;BME280;56427;51.580;4.656;2024-01-27T00:58:48;103543.09;;;2.44;100.00
69306;BME280;56427;51.580;4.656;2024-01-27T01:01:13;103544.97;;;2.50;100.00
69306;BME280;56427;51.580;4.656;2024-01-27T01:03:39;103552.06;;;2.59;100.00
69306;BME280;56427;51.580;4.656;2024-01-27T01:06:07;103555.19;;;2.49;100.00
69306;BME280;56427;51.580;4.656;2024-01-27T01:08:32;103557.50;;;2.41;100.00
69306;BME280;56427;51.580;4.656;2024-01-27T01:10:58;103549.03;;;2.43;100.00
69306;BME280;56427;51.580;4.656;2024-01-27T01:13:24;103549.06;;;2.45;100.00
69306;BME280;56427;51.580;4.656;2024-01-27T01:15:49;103549.06;;;2.45;100.00
69306;BME280;56427;51.580;4.656;2024-01-27T01:18:14;103560.72;;;2.34;100.00
69306;BME280;56427;51.580;4.656;2024-01-27T01:20:40;103544.56;;;2.36;100.00
69306;BME280;56427;51.580;4.656;2024-01-27T01:23:06;103547.09;;;2.35;100.00
69306;BME280;56427;51.580;4.656;2024-01-27T01:25:32;103544.41;;;2.32;100.00
69306;BME280;56427;51.580;4.656;2024-01-27T01:27:57;103548.50;;;2.25;100.00
69306;BME280;56427;51.580;4.656;2024-01-27T01:30:22;103550.19;;;2.25;100.00
69306;BME280;56427;51.580;4.656;2024-01-27T01:32:48;103550.38;;;2.31;100.00
69306;BME280;56427;51.580;4.656;2024-01-27T01:35:14;103547.91;;;2.34;100.00
69306;BME280;56427;51.580;4.656;2024-01-27T01:37:39;103554.97;;;2.41;100.00
69306;BME280;56427;51.580;4.656;2024-01-27T01:40:05;103560.78;;;2.37;100.00
69306;BME280;56427;51.580;4.656;2024-01-27T01:42:32;103556.50;;;2.36;100.00
69306;BME280;56427;51.580;4.656;2024-01-27T01:44:57;103564.97;;;2.33;100.00
69306;BME280;56427;51.580;4.656;2024-01-27T01:47:23;103556.31;;;2.30;100.00
69306;BME280;56427;51.580;4.656;2024-01-27T01:49:49;103557.03;;;2.26;100.00
69306;BME280;56427;51.580;4.656;2024-01-27T01:52:14;103558.69;;;2.24;100.00
69306;BME280;56427;51.580;4.656;2024-01-27T01:54:49;103562.13;;;2.24;100.00
69306;BME280;56427;51.580;4.656;2024-01-27T01:57:17;103561.28;;;2.25;100.00
69306;BME280;56427;51.580;4.656;2024-01-27T01:59:43;103550.09;;;2.22;100.00
69306;BME280;56427;51.580;4.656;2024-01-27T02:02:09;103549.44;;;2.27;100.00
69306;BME280;56427;51.580;4.656;2024-01-27T02:04:41;103551.13;;;2.27;100.00
69306;BME280;56427;51.580;4.656;2024-01-27T02:07:07;103551.13;;;2.27;100.00
69306;BME280;56427;51.580;4.656;2024-01-27T02:09:32;103562.94;;;2.23;100.00
69306;BME280;56427;51.580;4.656;2024-01-27T02:11:57;103563.78;;;2.22;100.00
69306;BME280;56427;51.580;4.656;2024-01-27T02:14:23;103559.47;;;2.21;100.00
69306;BME280;56427;51.580;4.656;2024-01-27T02:16:50;103556.06;;;2.21;100.00
69306;BME280;56427;51.580;4.656;2024-01-27T02:19:16;103557.75;;;2.20;100.00
69306;BME280;56427;51.580;4.656;2024-01-27T02:21:41;103565.66;;;2.28;100.00
69306;BME280;56427;51.580;4.656;2024-01-27T02:24:07;103561.78;;;2.13;100.00
69306;BME280;56427;51.580;4.656;2024-01-27T02:26:32;103557.50;;;2.12;100.00
69306;BME280;56427;51.580;4.656;2024-01-27T02:28:58;103560.91;;;2.13;100.00
69306;BME280;56427;51.580;4.656;2024-01-27T02:31:23;103557.38;;;2.08;100.00
69306;BME280;56427;51.580;4.656;2024-01-27T02:33:49;103553.97;;;2.09;100.00
69306;BME280;56427;51.580;4.656;2024-01-27T02:36:15;103559.97;;;2.09;100.00
69306;BME280;56427;51.580;4.656;2024-01-27T02:38:40;103562.34;;;2.03;100.00
69306;BME280;56427;51.580;4.656;2024-01-27T02:41:06;103554.81;;;2.08;100.00
69306;BME280;56427;51.580;4.656;2024-01-27T02:43:31;103562.19;;;1.99;100.00
69306;BME280;56427;51.580;4.656;2024-01-27T02:45:56;103570.94;;;2.05;100.00
69306;BME280;56427;51.580;4.656;2024-01-27T02:48:24;103578.56;;;2.04;100.00
69306;BME280;56427;51.580;4.656;2024-01-27T02:50:50;103577.34;;;1.93;100.00
69306;BME280;56427;51.580;4.656;2024-01-27T02:53:15;103575.63;;;1.92;100.00
69306;BME280;56427;51.580;4.656;2024-01-27T02:55:40;103573.88;;;1.91;100.00
69306;BME280;56427;51.580;4.656;2024-01-27T02:58:06;103575.56;;;1.90;100.00
69306;BME280;56427;51.580;4.656;2024-01-27T03:00:32;103569.72;;;1.94;100.00
69306;BME280;56427;51.580;4.656;2024-01-27T03:02:57;103577.97;;;1.85;100.00
69306;BME280;56427;51.580;4.656;2024-01-27T03:05:23;103571.13;;;1.84;100.00
69306;BME280;56427;51.580;4.656;2024-01-27T03:07:49;103579.66;;;1.85;100.00
69306;BME280;56427;51.580;4.656;2024-01-27T03:10:14;103580.47;;;1.82;100.00
69306;BME280;56427;51.580;4.656;2024-01-27T03:12:39;103579.66;;;1.85;100.00
69306;BME280;56427;51.580;4.656;2024-01-27T03:15:05;103580.47;;;1.82;100.00
69306;BME280;56427;51.580;4.656;2024-01-27T03:17:30;103576.00;;;1.77;100.00
69306;BME280;56427;51.580;4.656;2024-01-27T03:19:56;103581.16;;;1.78;100.00
69306;BME280;56427;51.580;4.656;2024-01-27T03:22:21;103579.28;;;1.73;100.00
69306;BME280;56427;51.580;4.656;2024-01-27T03:24:47;103577.63;;;1.75;100.00
69306;BME280;56427;51.580;4.656;2024-01-27T03:27:12;103583.75;;;1.80;100.00
69306;BME280;56427;51.580;4.656;2024-01-27T03:29:38;103589.88;;;1.83;100.00
69306;BME280;56427;51.580;4.656;2024-01-27T03:32:04;103584.84;;;1.86;100.00
69306;BME280;56427;51.580;4.656;2024-01-27T03:34:29;103577.97;;;1.85;100.00
69306;BME280;56427;51.580;4.656;2024-01-27T03:36:55;103574.41;;;1.80;100.00
69306;BME280;56427;51.580;4.656;2024-01-27T03:39:20;103580.47;;;1.82;100.00
69306;BME280;56427;51.580;4.656;2024-01-27T03:41:45;103590.50;;;1.76;100.00
69306;BME280;56427;51.580;4.656;2024-01-27T03:44:11;103577.53;;;1.72;100.00
69306;BME280;56427;51.580;4.656;2024-01-27T03:46:36;103574.13;;;1.71;100.00
69306;BME280;56427;51.580;4.656;2024-01-27T03:49:04;103567.94;;;1.65;100.00
69306;BME280;56427;51.580;4.656;2024-01-27T03:51:30;103567.09;;;1.66;100.00
69306;BME280;56427;51.580;4.656;2024-01-27T03:53:55;103554.31;;;1.66;100.00
69306;BME280;56427;51.580;4.656;2024-01-27T03:56:20;103565.28;;;1.63;100.00
69306;BME280;56427;51.580;4.656;2024-01-27T03:58:46;103565.28;;;1.63;100.00
69306;BME280;56427;51.580;4.656;2024-01-27T04:01:11;103572.97;;;1.63;100.00
69306;BME280;56427;51.580;4.656;2024-01-27T04:03:37;103570.00;;;1.51;100.00
69306;BME280;56427;51.580;4.656;2024-01-27T04:06:02;103566.69;;;1.53;100.00
69306;BME280;56427;51.580;4.656;2024-01-27T04:08:30;103564.78;;;1.48;100.00
69306;BME280;56427;51.580;4.656;2024-01-27T04:10:55;103572.47;;;1.48;100.00
69306;BME280;56427;51.580;4.656;2024-01-27T04:13:21;103584.44;;;1.49;100.00
69306;BME280;56427;51.580;4.656;2024-01-27T04:15:46;103576.81;;;1.50;100.00
69306;BME280;56427;51.580;4.656;2024-01-27T04:18:12;103584.66;;;1.55;100.00
69306;BME280;56427;51.580;4.656;2024-01-27T04:20:37;103581.06;;;1.50;100.00
69306;BME280;56427;51.580;4.656;2024-01-27T04:23:03;103589.66;;;1.52;100.00
69306;BME280;56427;51.580;4.656;2024-01-27T04:25:29;103583.63;;;1.50;100.00
69306;BME280;56427;51.580;4.656;2024-01-27T04:27:55;103586.16;;;1.50;100.00
69306;BME280;56427;51.580;4.656;2024-01-27T04:30:22;103599.03;;;1.51;100.00
69306;BME280;56427;51.580;4.656;2024-01-27T04:32:48;103586.91;;;1.46;100.00
69306;BME280;56427;51.580;4.656;2024-01-27T04:35:17;103581.00;;;1.48;100.00
69306;BME280;56427;51.580;4.656;2024-01-27T04:37:43;103581.72;;;1.44;100.00
69306;BME280;56427;51.580;4.656;2024-01-27T04:40:10;103591.94;;;1.44;100.00
69306;BME280;56427;51.580;4.656;2024-01-27T04:42:37;103585.97;;;1.44;100.00
69306;BME280;56427;51.580;4.656;2024-01-27T04:45:04;103578.38;;;1.45;100.00
69306;BME280;56427;51.580;4.656;2024-01-27T04:47:30;103585.91;;;1.42;100.00
69306;BME280;56427;51.580;4.656;2024-01-27T04:49:55;103577.16;;;1.35;100.00
69306;BME280;56427;51.580;4.656;2024-01-27T04:52:22;103575.69;;;1.42;100.00
69306;BME280;56427;51.580;4.656;2024-01-27T04:54:47;103571.19;;;1.35;100.00
69306;BME280;56427;51.580;4.656;2024-01-27T04:57:13;103572.22;;;1.40;100.00
69306;BME280;56427;51.580;4.656;2024-01-27T04:59:38;103581.72;;;1.44;100.00
69306;BME280;56427;51.580;4.656;2024-01-27T05:02:04;103569.53;;;1.37;100.00
69306;BME280;56427;51.580;4.656;2024-01-27T05:04:29;103578.91;;;1.37;100.00
69306;BME280;56427;51.580;4.656;2024-01-27T05:06:55;103582.28;;;1.35;100.00
69306;BME280;56427;51.580;4.656;2024-01-27T05:09:20;103583.06;;;1.33;100.00
69306;BME280;56427;51.580;4.656;2024-01-27T05:11:46;103579.56;;;1.31;100.00
69306;BME280;56427;51.580;4.656;2024-01-27T05:14:12;103578.03;;;1.36;100.00
69306;BME280;56427;51.580;4.656;2024-01-27T05:16:37;103571.03;;;1.30;100.00
69306;BME280;56427;51.580;4.656;2024-01-27T05:19:03;103570.09;;;1.28;100.00
69306;BME280;56427;51.580;4.656;2024-01-27T05:21:28;103558.28;;;1.32;100.00
69306;BME280;56427;51.580;4.656;2024-01-27T05:23:54;103565.88;;;1.29;100.00
69306;BME280;56427;51.580;4.656;2024-01-27T05:26:20;103563.25;;;1.27;100.00
69306;BME280;56427;51.580;4.656;2024-01-27T05:28:46;103557.31;;;1.28;100.00
69306;BME280;56427;51.580;4.656;2024-01-27T05:31:11;103565.03;;;1.30;100.00
69306;BME280;56427;51.580;4.656;2024-01-27T05:33:38;103568.31;;;1.26;100.00
69306;BME280;56427;51.580;4.656;2024-01-27T05:36:04;103573.44;;;1.26;100.00
69306;BME280;56427;51.580;4.656;2024-01-27T05:38:31;103567.38;;;1.24;100.00
69306;BME280;56427;51.580;4.656;2024-01-27T05:40:58;103579.25;;;1.22;100.00
69306;BME280;56427;51.580;4.656;2024-01-27T05:43:25;103563.91;;;1.22;100.00
69306;BME280;56427;51.580;4.656;2024-01-27T05:45:50;103572.94;;;1.12;100.00
69306;BME280;56427;51.580;4.656;2024-01-27T05:48:16;103573.94;;;1.16;100.00
69306;BME280;56427;51.580;4.656;2024-01-27T05:50:42;103574.88;;;1.19;100.00
69306;BME280;56427;51.580;4.656;2024-01-27T05:53:08;103573.00;;;1.14;100.00
69306;BME280;56427;51.580;4.656;2024-01-27T05:55:33;103571.16;;;1.10;100.00
69306;BME280;56427;51.580;4.656;2024-01-27T05:57:59;103574.75;;;1.15;100.00
69306;BME280;56427;51.580;4.656;2024-01-27T06:00:24;103569.78;;;1.19;100.00
69306;BME280;56427;51.580;4.656;2024-01-27T06:02:50;103576.66;;;1.20;100.00
69306;BME280;56427;51.580;4.656;2024-01-27T06:05:15;103575.50;;;1.12;100.00
69306;BME280;56427;51.580;4.656;2024-01-27T06:07:41;103570.53;;;1.17;100.00
69306;BME280;56427;51.580;4.656;2024-01-27T06:10:08;103567.28;;;1.21;100.00
69306;BME280;56427;51.580;4.656;2024-01-27T06:12:34;103565.38;;;1.15;100.00
69306;BME280;56427;51.580;4.656;2024-01-27T06:15:00;103562.84;;;1.15;100.00
69306;BME280;56427;51.580;4.656;2024-01-27T06:17:26;103554.31;;;1.15;100.00
69306;BME280;56427;51.580;4.656;2024-01-27T06:19:51;103548.16;;;1.10;100.00
69306;BME280;56427;51.580;4.656;2024-01-27T06:22:17;103568.44;;;1.05;100.00
69306;BME280;56427;51.580;4.656;2024-01-27T06:24:43;103562.56;;;1.07;100.00
69306;BME280;56427;51.580;4.656;2024-01-27T06:27:10;103572.06;;;1.12;100.00
69306;BME280;56427;51.580;4.656;2024-01-27T06:29:37;103568.66;;;1.11;100.00
69306;BME280;56427;51.580;4.656;2024-01-27T06:32:03;103573.75;;;1.11;100.00
69306;BME280;56427;51.580;4.656;2024-01-27T06:34:28;103578.00;;;1.11;100.00
69306;BME280;56427;51.580;4.656;2024-01-27T06:36:53;103583.81;;;1.06;100.00
69306;BME280;56427;51.580;4.656;2024-01-27T06:39:19;103584.50;;;1.01;100.00
69306;BME280;56427;51.580;4.656;2024-01-27T06:41:47;103581.13;;;1.02;100.00
69306;BME280;56427;51.580;4.656;2024-01-27T06:44:12;103603.28;;;1.03;100.00
69306;BME280;56427;51.580;4.656;2024-01-27T06:46:38;103596.50;;;1.03;100.00
69306;BME280;56427;51.580;4.656;2024-01-27T06:49:03;103600.03;;;1.07;100.00
69306;BME280;56427;51.580;4.656;2024-01-27T06:51:29;103598.13;;;1.01;100.00
69306;BME280;56427;51.580;4.656;2024-01-27T06:53:54;103608.19;;;0.97;100.00
69306;BME280;56427;51.580;4.656;2024-01-27T06:56:19;103605.56;;;0.95;100.00
69306;BME280;56427;51.580;4.656;2024-01-27T06:58:45;103607.13;;;0.92;100.00
69306;BME280;56427;51.580;4.656;2024-01-27T07:01:10;103615.56;;;0.89;100.00
69306;BME280;56427;51.580;4.656;2024-01-27T07:03:36;103608.91;;;0.94;100.00
69306;BME280;56427;51.580;4.656;2024-01-27T07:06:02;103606.59;;;1.00;100.00
69306;BME280;56427;51.580;4.656;2024-01-27T07:08:27;103602.91;;;0.92;100.00
69306;BME280;56427;51.580;4.656;2024-01-27T07:10:53;103596.31;;;0.99;100.00
69306;BME280;56427;51.580;4.656;2024-01-27T07:13:18;103592.19;;;1.02;100.00
69306;BME280;56427;51.580;4.656;2024-01-27T07:15:44;103596.28;;;0.97;100.00
69306;BME280;56427;51.580;4.656;2024-01-27T07:18:10;103602.25;;;0.98;100.00
69306;BME280;56427;51.580;4.656;2024-01-27T07:20:36;103598.81;;;0.97;100.00
69306;BME280;56427;51.580;4.656;2024-01-27T07:23:01;103593.75;;;0.99;100.00
69306;BME280;56427;51.580;4.656;2024-01-27T07:25:27;103591.34;;;1.02;100.00
69306;BME280;56427;51.580;4.656;2024-01-27T07:27:53;103601.56;;;1.02;100.00
69306;BME280;56427;51.580;4.656;2024-01-27T07:30:20;103601.66;;;1.05;100.00
69306;BME280;56427;51.580;4.656;2024-01-27T07:32:45;103595.81;;;1.07;100.00
69306;BME280;56427;51.580;4.656;2024-01-27T07:35:11;103596.44;;;1.02;100.00
69306;BME280;56427;51.580;4.656;2024-01-27T07:37:36;103590.28;;;0.97;100.00
69306;BME280;56427;51.580;4.656;2024-01-27T07:40:02;103602.44;;;1.02;100.00
69306;BME280;56427;51.580;4.656;2024-01-27T07:42:28;103592.94;;;1.00;100.00
69306;BME280;56427;51.580;4.656;2024-01-27T07:44:53;103590.47;;;1.01;100.00
69306;BME280;56427;51.580;4.656;2024-01-27T07:47:18;103595.63;;;1.03;100.00
69306;BME280;56427;51.580;4.656;2024-01-27T07:49:44;103585.34;;;1.01;100.00
69306;BME280;56427;51.580;4.656;2024-01-27T07:52:10;103579.72;;;1.12;100.00
69306;BME280;56427;51.580;4.656;2024-01-27T07:54:35;103585.56;;;1.07;100.00
69306;BME280;56427;51.580;4.656;2024-01-27T07:57:04;103589.59;;;1.01;100.00
69306;BME280;56427;51.580;4.656;2024-01-27T07:59:32;103588.66;;;0.99;100.00
69306;BME280;56427;51.580;4.656;2024-01-27T08:01:59;103588.34;;;1.14;100.00
69306;BME280;56427;51.580;4.656;2024-01-27T08:04:25;103589.53;;;1.23;100.00
69306;BME280;56427;51.580;4.656;2024-01-27T08:06:51;103592.56;;;1.13;100.00
69306;BME280;56427;51.580;4.656;2024-01-27T08:09:17;103597.34;;;0.80;100.00
69306;BME280;56427;51.580;4.656;2024-01-27T08:11:43;103590.38;;;0.53;100.00
69306;BME280;56427;51.580;4.656;2024-01-27T08:14:09;103604.03;;;0.76;100.00
69306;BME280;56427;51.580;4.656;2024-01-27T08:16:34;103598.66;;;0.93;100.00
69306;BME280;56427;51.580;4.656;2024-01-27T08:19:00;103613.09;;;1.15;100.00
69306;BME280;56427;51.580;4.656;2024-01-27T08:21:26;103619.56;;;1.29;100.00
69306;BME280;56427;51.580;4.656;2024-01-27T08:23:53;103614.28;;;1.24;100.00
69306;BME280;56427;51.580;4.656;2024-01-27T08:26:20;103614.44;;;1.78;100.00
69306;BME280;56427;51.580;4.656;2024-01-27T08:28:46;103619.66;;;2.35;100.00
69306;BME280;56427;51.580;4.656;2024-01-27T08:31:12;103623.38;;;2.74;100.00
69306;BME280;56427;51.580;4.656;2024-01-27T08:33:37;103622.19;;;3.87;98.98
69306;BME280;56427;51.580;4.656;2024-01-27T08:36:03;103624.41;;;3.40;99.05
69306;BME280;56427;51.580;4.656;2024-01-27T08:38:28;103619.50;;;3.49;96.06
69306;BME280;56427;51.580;4.656;2024-01-27T08:40:54;103628.63;;;4.42;95.56
69306;BME280;56427;51.580;4.656;2024-01-27T08:43:19;103639.38;;;5.03;90.77
69306;BME280;56427;51.580;4.656;2024-01-27T08:45:44;103644.00;;;5.66;86.75
69306;BME280;56427;51.580;4.656;2024-01-27T08:48:10;103644.31;;;4.94;88.73
69306;BME280;56427;51.580;4.656;2024-01-27T08:50:36;103639.25;;;5.42;84.66
69306;BME280;56427;51.580;4.656;2024-01-27T08:53:02;103635.63;;;4.88;88.26
69306;BME280;56427;51.580;4.656;2024-01-27T08:55:28;103632.81;;;5.20;88.07
69306;BME280;56427;51.580;4.656;2024-01-27T08:57:53;103637.75;;;5.53;86.52
69306;BME280;56427;51.580;4.656;2024-01-27T09:00:19;103634.56;;;5.21;86.31
69306;BME280;56427;51.580;4.656;2024-01-27T09:02:45;103628.09;;;5.41;85.58
69306;BME280;56427;51.580;4.656;2024-01-27T09:05:10;103647.16;;;5.07;88.32
69306;BME280;56427;51.580;4.656;2024-01-27T09:07:36;103643.91;;;4.75;91.57
69306;BME280;56427;51.580;4.656;2024-01-27T09:10:02;103634.91;;;5.39;87.68
69306;BME280;56427;51.580;4.656;2024-01-27T09:12:28;103634.31;;;5.09;88.96
69306;BME280;56427;51.580;4.656;2024-01-27T09:14:53;103649.63;;;4.62;91.01
69306;BME280;56427;51.580;4.656;2024-01-27T09:17:21;103641.03;;;4.22;92.27
69306;BME280;56427;51.580;4.656;2024-01-27T09:19:47;103645.97;;;4.52;93.51
69306;BME280;56427;51.580;4.656;2024-01-27T09:22:12;103647.66;;;4.50;93.42
69306;BME280;56427;51.580;4.656;2024-01-27T09:24:39;103641.91;;;4.24;94.10
69306;BME280;56427;51.580;4.656;2024-01-27T09:27:04;103651.19;;;4.18;94.92
69306;BME280;56427;51.580;4.656;2024-01-27T09:29:30;103659.06;;;4.63;94.44
69306;BME280;56427;51.580;4.656;2024-01-27T09:31:55;103662.81;;;4.77;92.47
69306;BME280;56427;51.580;4.656;2024-01-27T09:34:21;103656.44;;;4.99;92.21
69306;BME280;56427;51.580;4.656;2024-01-27T09:36:46;103649.19;;;5.22;91.38
69306;BME280;56427;51.580;4.656;2024-01-27T09:39:12;103654.38;;;5.25;90.71
69306;BME280;56427;51.580;4.656;2024-01-27T09:41:38;103659.53;;;6.22;86.19
69306;BME280;56427;51.580;4.656;2024-01-27T09:44:04;103655.91;;;6.67;84.02
69306;BME280;56427;51.580;4.656;2024-01-27T09:46:31;103646.19;;;5.93;85.00
69306;BME280;56427;51.580;4.656;2024-01-27T09:48:57;103655.19;;;6.18;86.00
69306;BME280;56427;51.580;4.656;2024-01-27T09:51:22;103665.81;;;7.01;79.64
69306;BME280;56427;51.580;4.656;2024-01-27T09:53:49;103677.59;;;6.80;81.24
69306;BME280;56427;51.580;4.656;2024-01-27T09:56:18;103681.91;;;6.23;83.17
69306;BME280;56427;51.580;4.656;2024-01-27T09:58:44;103673.75;;;7.17;79.20
69306;BME280;56427;51.580;4.656;2024-01-27T10:01:11;103684.25;;;7.34;80.43
69306;BME280;56427;51.580;4.656;2024-01-27T10:03:41;103686.25;;;7.59;77.97
69306;BME280;56427;51.580;4.656;2024-01-27T10:06:10;103685.09;;;7.29;80.58
69306;BME280;56427;51.580;4.656;2024-01-27T10:08:36;103682.88;;;7.65;79.36
69306;BME280;56427;51.580;4.656;2024-01-27T10:11:09;103687.28;;;7.75;79.38
69306;BME280;56427;51.580;4.656;2024-01-27T10:13:36;103689.25;;;8.03;78.63
69306;BME280;56427;51.580;4.656;2024-01-27T10:16:08;103694.38;;;7.96;77.90
69306;BME280;56427;51.580;4.656;2024-01-27T10:18:35;103703.72;;;7.83;78.69
69306;BME280;56427;51.580;4.656;2024-01-27T10:21:12;103707.34;;;8.03;77.40
69306;BME280;56427;51.580;4.656;2024-01-27T10:23:39;103710.63;;;7.82;78.47
69306;BME280;56427;51.580;4.656;2024-01-27T10:26:05;103707.34;;;8.00;76.81
69306;BME280;56427;51.580;4.656;2024-01-27T10:28:30;103705.63;;;7.20;81.00
69306;BME280;56427;51.580;4.656;2024-01-27T10:31:15;103702.88;;;7.05;82.88
69306;BME280;56427;51.580;4.656;2024-01-27T10:33:51;103699.84;;;7.41;81.68
69306;BME280;56427;51.580;4.656;2024-01-27T10:36:17;103704.38;;;6.89;83.14
69306;BME280;56427;51.580;4.656;2024-01-27T10:38:42;103689.19;;;6.48;85.53
69306;BME280;56427;51.580;4.656;2024-01-27T10:41:09;103696.94;;;6.50;86.90
69306;BME280;56427;51.580;4.656;2024-01-27T10:43:38;103700.72;;;6.75;85.96
69306;BME280;56427;51.580;4.656;2024-01-27T10:46:08;103700.66;;;6.70;86.16
69306;BME280;56427;51.580;4.656;2024-01-27T10:48:37;103689.28;;;7.21;85.72
69306;BME280;56427;51.580;4.656;2024-01-27T10:51:07;103694.59;;;6.67;86.27
69306;BME280;56427;51.580;4.656;2024-01-27T10:53:35;103686.63;;;6.52;85.82
69306;BME280;56427;51.580;4.656;2024-01-27T10:56:04;103695.69;;;6.84;86.87
69306;BME280;56427;51.580;4.656;2024-01-27T10:58:35;103687.69;;;7.31;84.58
69306;BME280;56427;51.580;4.656;2024-01-27T11:01:13;103692.69;;;7.17;85.33
69306;BME280;56427;51.580;4.656;2024-01-27T11:03:39;103694.66;;;7.38;84.08
69306;BME280;56427;51.580;4.656;2024-01-27T11:06:07;103692.47;;;7.00;84.70
69306;BME280;56427;51.580;4.656;2024-01-27T11:08:34;103691.47;;;7.61;84.82
69306;BME280;56427;51.580;4.656;2024-01-27T11:11:00;103690.41;;;7.45;83.09
69306;BME280;56427;51.580;4.656;2024-01-27T11:13:28;103678.56;;;7.64;83.02
69306;BME280;56427;51.580;4.656;2024-01-27T11:15:55;103677.94;;;7.89;82.78
69306;BME280;56427;51.580;4.656;2024-01-27T11:18:21;103676.22;;;7.90;81.35
69306;BME280;56427;51.580;4.656;2024-01-27T11:20:47;103680.47;;;7.80;82.34
69306;BME280;56427;51.580;4.656;2024-01-27T11:23:13;103675.97;;;7.61;82.81
69306;BME280;56427;51.580;4.656;2024-01-27T11:25:42;103674.19;;;7.55;84.42
69306;BME280;56427;51.580;4.656;2024-01-27T11:28:15;103674.34;;;7.72;84.81
69306;BME280;56427;51.580;4.656;2024-01-27T11:30:46;103681.44;;;7.97;83.41
69306;BME280;56427;51.580;4.656;2024-01-27T11:33:12;103673.78;;;8.06;83.49
69306;BME280;56427;51.580;4.656;2024-01-27T11:35:37;103669.38;;;7.96;82.96
69306;BME280;56427;51.580;4.656;2024-01-27T11:38:03;103678.22;;;8.23;81.78
69306;BME280;56427;51.580;4.656;2024-01-27T11:40:28;103665.78;;;7.77;82.26
69306;BME280;56427;51.580;4.656;2024-01-27T11:42:59;103674.59;;;7.99;83.28
69306;BME280;56427;51.580;4.656;2024-01-27T11:45:26;103664.91;;;7.78;83.43
69306;BME280;56427;51.580;4.656;2024-01-27T11:47:55;103674.84;;;8.30;81.62
69306;BME280;56427;51.580;4.656;2024-01-27T11:50:21;103672.38;;;8.44;80.13
69306;BME280;56427;51.580;4.656;2024-01-27T11:52:47;103669.84;;;8.50;81.30
69306;BME280;56427;51.580;4.656;2024-01-27T11:55:13;103663.72;;;8.42;80.05
69306;BME280;56427;51.580;4.656;2024-01-27T11:57:43;103658.53;;;8.37;80.88
69306;BME280;56427;51.580;4.656;2024-01-27T12:00:08;103657.59;;;8.35;80.71
69306;BME280;56427;51.580;4.656;2024-01-27T12:02:38;103652.25;;;8.09;80.52
69306;BME280;56427;51.580;4.656;2024-01-27T12:05:05;103646.97;;;7.95;81.57
69306;BME280;56427;51.580;4.656;2024-01-27T12:07:30;103648.03;;;8.22;81.74
69306;BME280;56427;51.580;4.656;2024-01-27T12:09:56;103636.13;;;8.37;81.43
69306;BME280;56427;51.580;4.656;2024-01-27T12:12:22;103641.19;;;8.25;80.61
69306;BME280;56427;51.580;4.656;2024-01-27T12:14:48;103635.00;;;8.06;81.23
69306;BME280;56427;51.580;4.656;2024-01-27T12:17:14;103638.47;;;8.08;80.69
69306;BME280;56427;51.580;4.656;2024-01-27T12:19:52;103638.50;;;8.13;81.83
69306;BME280;56427;51.580;4.656;2024-01-27T12:22:28;103634.97;;;8.03;81.52
69306;BME280;56427;51.580;4.656;2024-01-27T12:24:55;103640.16;;;8.03;81.47
69306;BME280;56427;51.580;4.656;2024-01-27T12:27:22;103631.03;;;8.53;79.93
69306;BME280;56427;51.580;4.656;2024-01-27T12:29:49;103627.72;;;8.84;80.18
69306;BME280;56427;51.580;4.656;2024-01-27T12:32:15;103621.53;;;8.53;79.13
69306;BME280;56427;51.580;4.656;2024-01-27T12:34:41;103613.63;;;8.32;79.66
69306;BME280;56427;51.580;4.656;2024-01-27T12:37:08;103617.94;;;8.30;80.49
69306;BME280;56427;51.580;4.656;2024-01-27T12:39:36;103609.41;;;8.37;80.05
69306;BME280;56427;51.580;4.656;2024-01-27T12:42:02;103611.13;;;8.41;80.49
69306;BME280;56427;51.580;4.656;2024-01-27T12:44:27;103608.63;;;8.55;79.97
69306;BME280;56427;51.580;4.656;2024-01-27T12:46:52;103603.41;;;8.47;79.48